sensor_id;sensor_type;location;lat;lon;timestamp;temperature;humidity
46720;DHT22;32452;51.382;-0.002;2023-08-12T00:01:27;18.50;98.40
46720;DHT22;32452;51.382;-0.002;2023-08-12T00:04:12;18.50;98.30
46720;DHT22;32452;51.382;-0.002;2023-08-12T00:07:00;18.40;98.30
46720;DHT22;32452;51.382;-0.002;2023-08-12T00:09:45;18.40;98.20
46720;DHT22;32452;51.382;-0.002;2023-08-12T00:12:31;18.40;98.20
46720;DHT22;32452;51.382;-0.002;2023-08-12T00:15:17;18.40;98.30
46720;DHT22;32452;51.382;-0.002;2023-08-12T00:18:03;18.40;98.30
46720;DHT22;32452;51.382;-0.002;2023-08-12T00:20:52;18.40;98.30
46720;DHT22;32452;51.382;-0.002;2023-08-12T00:23:39;18.40;98.30
46720;DHT22;32452;51.382;-0.002;2023-08-12T00:26:29;18.40;98.20
46720;DHT22;32452;51.382;-0.002;2023-08-12T00:29:15;18.40;98.20
46720;DHT22;32452;51.382;-0.002;2023-08-12T00:32:01;18.40;98.10
46720;DHT22;32452;51.382;-0.002;2023-08-12T00:34:47;18.40;98.00
46720;DHT22;32452;51.382;-0.002;2023-08-12T00:37:32;18.40;97.70
46720;DHT22;32452;51.382;-0.002;2023-08-12T00:40:18;18.40;97.60
46720;DHT22;32452;51.382;-0.002;2023-08-12T00:43:04;18.50;97.50
46720;DHT22;32452;51.382;-0.002;2023-08-12T00:45:49;18.50;97.40
46720;DHT22;32452;51.382;-0.002;2023-08-12T00:48:35;18.50;97.20
46720;DHT22;32452;51.382;-0.002;2023-08-12T00:51:20;18.40;97.10
46720;DHT22;32452;51.382;-0.002;2023-08-12T00:54:08;18.50;97.10
46720;DHT22;32452;51.382;-0.002;2023-08-12T00:56:58;18.40;97.10
46720;DHT22;32452;51.382;-0.002;2023-08-12T00:59:44;18.40;97.00
46720;DHT22;32452;51.382;-0.002;2023-08-12T01:02:31;18.40;96.90
46720;DHT22;32452;51.382;-0.002;2023-08-12T01:05:18;18.40;97.00
46720;DHT22;32452;51.382;-0.002;2023-08-12T01:08:05;18.40;97.10
46720;DHT22;32452;51.382;-0.002;2023-08-12T01:10:56;18.30;97.10
46720;DHT22;32452;51.382;-0.002;2023-08-12T01:14:04;18.30;97.20
46720;DHT22;32452;51.382;-0.002;2023-08-12T01:16:56;18.30;97.30
46720;DHT22;32452;51.382;-0.002;2023-08-12T01:19:45;18.20;97.40
46720;DHT22;32452;51.382;-0.002;2023-08-12T01:22:32;18.20;97.80
46720;DHT22;32452;51.382;-0.002;2023-08-12T01:25:22;18.20;97.60
46720;DHT22;32452;51.382;-0.002;2023-08-12T01:28:08;18.20;97.70
46720;DHT22;32452;51.382;-0.002;2023-08-12T01:31:17;18.10;97.70
46720;DHT22;32452;51.382;-0.002;2023-08-12T01:34:20;18.10;97.70
46720;DHT22;32452;51.382;-0.002;2023-08-12T01:37:11;18.10;97.90
46720;DHT22;32452;51.382;-0.002;2023-08-12T01:40:02;18.10;97.90
46720;DHT22;32452;51.382;-0.002;2023-08-12T01:42:50;18.10;98.00
46720;DHT22;32452;51.382;-0.002;2023-08-12T01:45:37;18.00;98.20
46720;DHT22;32452;51.382;-0.002;2023-08-12T01:48:23;18.00;98.30
46720;DHT22;32452;51.382;-0.002;2023-08-12T01:51:08;17.90;98.40
46720;DHT22;32452;51.382;-0.002;2023-08-12T01:53:54;17.90;98.50
46720;DHT22;32452;51.382;-0.002;2023-08-12T01:56:39;17.80;98.60
46720;DHT22;32452;51.382;-0.002;2023-08-12T01:59:25;17.80;98.70
46720;DHT22;32452;51.382;-0.002;2023-08-12T02:02:11;17.80;98.90
46720;DHT22;32452;51.382;-0.002;2023-08-12T02:04:58;17.80;99.00
46720;DHT22;32452;51.382;-0.002;2023-08-12T02:07:43;17.70;99.10
46720;DHT22;32452;51.382;-0.002;2023-08-12T02:10:28;17.70;99.30
46720;DHT22;32452;51.382;-0.002;2023-08-12T02:13:14;17.60;99.40
46720;DHT22;32452;51.382;-0.002;2023-08-12T02:15:59;17.60;99.60
46720;DHT22;32452;51.382;-0.002;2023-08-12T02:18:45;17.60;99.70
46720;DHT22;32452;51.382;-0.002;2023-08-12T02:21:31;17.50;99.80
46720;DHT22;32452;51.382;-0.002;2023-08-12T02:24:16;17.50;99.90
46720;DHT22;32452;51.382;-0.002;2023-08-12T02:27:02;17.50;99.90
46720;DHT22;32452;51.382;-0.002;2023-08-12T02:29:47;17.40;99.90
46720;DHT22;32452;51.382;-0.002;2023-08-12T02:32:33;17.40;99.90
46720;DHT22;32452;51.382;-0.002;2023-08-12T02:35:20;17.30;99.90
46720;DHT22;32452;51.382;-0.002;2023-08-12T02:38:05;17.30;99.90
46720;DHT22;32452;51.382;-0.002;2023-08-12T02:40:51;17.20;99.90
46720;DHT22;32452;51.382;-0.002;2023-08-12T02:43:37;17.20;99.90
46720;DHT22;32452;51.382;-0.002;2023-08-12T02:46:22;17.20;99.90
46720;DHT22;32452;51.382;-0.002;2023-08-12T02:49:10;17.10;99.90
46720;DHT22;32452;51.382;-0.002;2023-08-12T02:51:55;17.00;99.90
46720;DHT22;32452;51.382;-0.002;2023-08-12T02:54:41;17.00;99.90
46720;DHT22;32452;51.382;-0.002;2023-08-12T02:57:27;17.00;99.90
46720;DHT22;32452;51.382;-0.002;2023-08-12T03:00:13;16.90;99.90
46720;DHT22;32452;51.382;-0.002;2023-08-12T03:02:58;16.90;99.90
46720;DHT22;32452;51.382;-0.002;2023-08-12T03:05:48;16.80;99.90
46720;DHT22;32452;51.382;-0.002;2023-08-12T03:08:34;16.80;99.90
46720;DHT22;32452;51.382;-0.002;2023-08-12T03:11:19;16.70;99.90
46720;DHT22;32452;51.382;-0.002;2023-08-12T03:14:05;16.70;99.90
46720;DHT22;32452;51.382;-0.002;2023-08-12T03:16:50;16.60;99.90
46720;DHT22;32452;51.382;-0.002;2023-08-12T03:19:36;16.60;99.90
46720;DHT22;32452;51.382;-0.002;2023-08-12T03:22:21;16.60;99.90
46720;DHT22;32452;51.382;-0.002;2023-08-12T03:25:07;16.60;99.90
46720;DHT22;32452;51.382;-0.002;2023-08-12T03:27:53;16.60;99.90
46720;DHT22;32452;51.382;-0.002;2023-08-12T03:30:39;16.60;99.90
46720;DHT22;32452;51.382;-0.002;2023-08-12T03:33:24;16.60;99.90
46720;DHT22;32452;51.382;-0.002;2023-08-12T03:36:10;16.50;99.90
46720;DHT22;32452;51.382;-0.002;2023-08-12T03:38:56;16.50;99.90
46720;DHT22;32452;51.382;-0.002;2023-08-12T03:41:41;16.60;99.90
46720;DHT22;32452;51.382;-0.002;2023-08-12T03:44:27;16.60;99.90
46720;DHT22;32452;51.382;-0.002;2023-08-12T03:47:12;16.70;99.90
46720;DHT22;32452;51.382;-0.002;2023-08-12T03:49:58;16.70;99.90
46720;DHT22;32452;51.382;-0.002;2023-08-12T03:52:44;16.80;99.90
46720;DHT22;32452;51.382;-0.002;2023-08-12T03:55:33;16.80;99.90
46720;DHT22;32452;51.382;-0.002;2023-08-12T03:58:18;16.80;99.90
46720;DHT22;32452;51.382;-0.002;2023-08-12T04:01:04;16.80;99.90
46720;DHT22;32452;51.382;-0.002;2023-08-12T04:03:50;16.90;99.90
46720;DHT22;32452;51.382;-0.002;2023-08-12T04:06:37;16.90;99.90
46720;DHT22;32452;51.382;-0.002;2023-08-12T04:09:22;17.00;99.90
46720;DHT22;32452;51.382;-0.002;2023-08-12T04:12:08;17.00;99.90
46720;DHT22;32452;51.382;-0.002;2023-08-12T04:14:53;17.00;99.90
46720;DHT22;32452;51.382;-0.002;2023-08-12T04:17:38;17.00;99.90
46720;DHT22;32452;51.382;-0.002;2023-08-12T04:20:26;17.10;99.90
46720;DHT22;32452;51.382;-0.002;2023-08-12T04:23:12;17.10;99.90
46720;DHT22;32452;51.382;-0.002;2023-08-12T04:25:58;17.00;99.90
46720;DHT22;32452;51.382;-0.002;2023-08-12T04:28:43;17.00;99.90
46720;DHT22;32452;51.382;-0.002;2023-08-12T04:31:29;17.00;99.90
46720;DHT22;32452;51.382;-0.002;2023-08-12T04:34:14;17.00;99.90
46720;DHT22;32452;51.382;-0.002;2023-08-12T04:37:00;17.00;99.90
46720;DHT22;32452;51.382;-0.002;2023-08-12T04:39:45;17.00;99.90
46720;DHT22;32452;51.382;-0.002;2023-08-12T04:42:33;17.00;99.90
46720;DHT22;32452;51.382;-0.002;2023-08-12T04:45:19;17.00;99.90
46720;DHT22;32452;51.382;-0.002;2023-08-12T04:48:05;17.00;99.90
46720;DHT22;32452;51.382;-0.002;2023-08-12T04:50:51;17.00;99.90
46720;DHT22;32452;51.382;-0.002;2023-08-12T04:53:36;17.00;99.90
46720;DHT22;32452;51.382;-0.002;2023-08-12T04:56:22;17.00;99.90
46720;DHT22;32452;51.382;-0.002;2023-08-12T04:59:09;17.00;99.90
46720;DHT22;32452;51.382;-0.002;2023-08-12T05:01:56;17.00;99.90
46720;DHT22;32452;51.382;-0.002;2023-08-12T05:05:01;17.00;99.90
46720;DHT22;32452;51.382;-0.002;2023-08-12T05:07:47;17.10;99.90
46720;DHT22;32452;51.382;-0.002;2023-08-12T05:10:33;17.00;99.90
46720;DHT22;32452;51.382;-0.002;2023-08-12T05:13:19;17.00;99.90
46720;DHT22;32452;51.382;-0.002;2023-08-12T05:16:04;17.00;99.90
46720;DHT22;32452;51.382;-0.002;2023-08-12T05:18:51;16.90;99.90
46720;DHT22;32452;51.382;-0.002;2023-08-12T05:21:36;16.90;99.90
46720;DHT22;32452;51.382;-0.002;2023-08-12T05:24:22;16.90;99.90
46720;DHT22;32452;51.382;-0.002;2023-08-12T05:27:08;16.90;99.90
46720;DHT22;32452;51.382;-0.002;2023-08-12T05:29:53;16.90;99.90
46720;DHT22;32452;51.382;-0.002;2023-08-12T05:32:39;17.00;99.90
46720;DHT22;32452;51.382;-0.002;2023-08-12T05:35:25;16.90;99.90
46720;DHT22;32452;51.382;-0.002;2023-08-12T05:38:11;17.00;99.90
46720;DHT22;32452;51.382;-0.002;2023-08-12T05:40:56;17.00;99.90
46720;DHT22;32452;51.382;-0.002;2023-08-12T05:43:41;17.00;99.90
46720;DHT22;32452;51.382;-0.002;2023-08-12T05:46:29;17.00;99.90
46720;DHT22;32452;51.382;-0.002;2023-08-12T05:49:14;17.10;99.90
46720;DHT22;32452;51.382;-0.002;2023-08-12T05:52:00;17.20;99.90
46720;DHT22;32452;51.382;-0.002;2023-08-12T05:54:46;17.20;99.90
46720;DHT22;32452;51.382;-0.002;2023-08-12T05:57:31;17.30;99.90
46720;DHT22;32452;51.382;-0.002;2023-08-12T06:00:17;17.60;99.90
46720;DHT22;32452;51.382;-0.002;2023-08-12T06:03:02;18.40;99.90
46720;DHT22;32452;51.382;-0.002;2023-08-12T06:05:48;19.20;99.90
46720;DHT22;32452;51.382;-0.002;2023-08-12T06:08:34;19.90;98.70
46720;DHT22;32452;51.382;-0.002;2023-08-12T06:11:19;20.40;97.70
46720;DHT22;32452;51.382;-0.002;2023-08-12T06:14:06;20.60;96.40
46720;DHT22;32452;51.382;-0.002;2023-08-12T06:16:51;20.60;96.10
46720;DHT22;32452;51.382;-0.002;2023-08-12T06:19:37;20.50;95.90
46720;DHT22;32452;51.382;-0.002;2023-08-12T06:22:23;20.20;96.10
46720;DHT22;32452;51.382;-0.002;2023-08-12T06:25:08;20.40;96.10
46720;DHT22;32452;51.382;-0.002;2023-08-12T06:27:54;20.80;95.40
46720;DHT22;32452;51.382;-0.002;2023-08-12T06:30:39;21.40;94.90
46720;DHT22;32452;51.382;-0.002;2023-08-12T06:33:25;22.00;93.70
46720;DHT22;32452;51.382;-0.002;2023-08-12T06:36:11;22.40;92.80
46720;DHT22;32452;51.382;-0.002;2023-08-12T06:38:56;22.70;92.00
46720;DHT22;32452;51.382;-0.002;2023-08-12T06:41:42;22.90;91.30
46720;DHT22;32452;51.382;-0.002;2023-08-12T06:44:27;23.00;90.60
46720;DHT22;32452;51.382;-0.002;2023-08-12T06:47:13;23.00;90.00
46720;DHT22;32452;51.382;-0.002;2023-08-12T06:49:59;23.10;89.60
46720;DHT22;32452;51.382;-0.002;2023-08-12T06:52:44;23.40;88.70
46720;DHT22;32452;51.382;-0.002;2023-08-12T06:55:30;23.60;87.80
46720;DHT22;32452;51.382;-0.002;2023-08-12T06:58:16;23.80;86.60
46720;DHT22;32452;51.382;-0.002;2023-08-12T07:01:01;23.80;85.80
46720;DHT22;32452;51.382;-0.002;2023-08-12T07:03:47;23.80;85.40
46720;DHT22;32452;51.382;-0.002;2023-08-12T07:06:32;24.20;84.70
46720;DHT22;32452;51.382;-0.002;2023-08-12T07:09:18;24.50;82.30
46720;DHT22;32452;51.382;-0.002;2023-08-12T07:12:04;24.30;80.70
46720;DHT22;32452;51.382;-0.002;2023-08-12T07:14:49;24.40;80.20
46720;DHT22;32452;51.382;-0.002;2023-08-12T07:17:35;24.60;79.70
46720;DHT22;32452;51.382;-0.002;2023-08-12T07:20:20;24.80;78.30
46720;DHT22;32452;51.382;-0.002;2023-08-12T07:23:06;24.80;77.00
46720;DHT22;32452;51.382;-0.002;2023-08-12T07:25:52;25.00;76.30
46720;DHT22;32452;51.382;-0.002;2023-08-12T07:28:37;25.10;75.10
46720;DHT22;32452;51.382;-0.002;2023-08-12T07:31:23;25.40;74.20
46720;DHT22;32452;51.382;-0.002;2023-08-12T07:34:08;25.70;73.30
46720;DHT22;32452;51.382;-0.002;2023-08-12T07:36:58;26.10;72.20
46720;DHT22;32452;51.382;-0.002;2023-08-12T07:39:44;26.40;70.40
46720;DHT22;32452;51.382;-0.002;2023-08-12T07:42:29;26.40;69.20
46720;DHT22;32452;51.382;-0.002;2023-08-12T07:45:15;26.40;68.50
46720;DHT22;32452;51.382;-0.002;2023-08-12T07:48:00;26.60;66.80
46720;DHT22;32452;51.382;-0.002;2023-08-12T07:50:46;26.60;66.10
46720;DHT22;32452;51.382;-0.002;2023-08-12T07:53:35;26.70;65.50
46720;DHT22;32452;51.382;-0.002;2023-08-12T07:56:20;26.80;64.60
46720;DHT22;32452;51.382;-0.002;2023-08-12T07:59:06;26.60;63.90
46720;DHT22;32452;51.382;-0.002;2023-08-12T08:01:52;26.20;64.40
46720;DHT22;32452;51.382;-0.002;2023-08-12T08:04:37;25.70;65.00
46720;DHT22;32452;51.382;-0.002;2023-08-12T08:07:23;25.40;65.90
46720;DHT22;32452;51.382;-0.002;2023-08-12T08:10:08;25.00;66.40
46720;DHT22;32452;51.382;-0.002;2023-08-12T08:12:54;24.70;67.60
46720;DHT22;32452;51.382;-0.002;2023-08-12T08:15:41;24.90;67.80
46720;DHT22;32452;51.382;-0.002;2023-08-12T08:18:26;25.40;66.70
46720;DHT22;32452;51.382;-0.002;2023-08-12T08:21:12;25.80;65.20
46720;DHT22;32452;51.382;-0.002;2023-08-12T08:23:57;26.10;63.50
46720;DHT22;32452;51.382;-0.002;2023-08-12T08:26:43;26.40;62.60
46720;DHT22;32452;51.382;-0.002;2023-08-12T08:29:31;26.70;61.70
46720;DHT22;32452;51.382;-0.002;2023-08-12T08:32:16;26.50;60.80
46720;DHT22;32452;51.382;-0.002;2023-08-12T08:35:02;26.20;60.40
46720;DHT22;32452;51.382;-0.002;2023-08-12T08:37:48;25.90;61.10
46720;DHT22;32452;51.382;-0.002;2023-08-12T08:40:34;25.70;62.00
46720;DHT22;32452;51.382;-0.002;2023-08-12T08:43:20;25.90;61.60
46720;DHT22;32452;51.382;-0.002;2023-08-12T08:46:09;26.20;60.60
46720;DHT22;32452;51.382;-0.002;2023-08-12T08:48:58;26.00;60.00
46720;DHT22;32452;51.382;-0.002;2023-08-12T08:51:46;25.80;60.20
46720;DHT22;32452;51.382;-0.002;2023-08-12T08:54:32;25.80;60.30
46720;DHT22;32452;51.382;-0.002;2023-08-12T08:57:18;26.10;60.50
46720;DHT22;32452;51.382;-0.002;2023-08-12T09:00:24;26.50;59.40
46720;DHT22;32452;51.382;-0.002;2023-08-12T09:03:10;26.50;59.00
46720;DHT22;32452;51.382;-0.002;2023-08-12T09:05:56;26.50;58.60
46720;DHT22;32452;51.382;-0.002;2023-08-12T09:08:45;26.60;58.10
46720;DHT22;32452;51.382;-0.002;2023-08-12T09:11:33;26.90;57.50
46720;DHT22;32452;51.382;-0.002;2023-08-12T09:14:19;26.90;57.20
46720;DHT22;32452;51.382;-0.002;2023-08-12T09:17:04;26.80;57.70
46720;DHT22;32452;51.382;-0.002;2023-08-12T09:19:50;27.20;58.10
46720;DHT22;32452;51.382;-0.002;2023-08-12T09:22:36;27.70;58.10
46720;DHT22;32452;51.382;-0.002;2023-08-12T09:25:21;27.50;55.80
46720;DHT22;32452;51.382;-0.002;2023-08-12T09:28:09;27.60;55.20
46720;DHT22;32452;51.382;-0.002;2023-08-12T09:30:55;27.80;53.90
46720;DHT22;32452;51.382;-0.002;2023-08-12T09:33:41;27.60;54.60
46720;DHT22;32452;51.382;-0.002;2023-08-12T09:36:28;27.90;54.90
46720;DHT22;32452;51.382;-0.002;2023-08-12T09:39:15;28.30;54.00
46720;DHT22;32452;51.382;-0.002;2023-08-12T09:42:01;28.50;53.70
46720;DHT22;32452;51.382;-0.002;2023-08-12T09:44:48;28.80;53.00
46720;DHT22;32452;51.382;-0.002;2023-08-12T09:47:33;28.70;52.20
46720;DHT22;32452;51.382;-0.002;2023-08-12T09:50:24;28.50;52.20
46720;DHT22;32452;51.382;-0.002;2023-08-12T09:53:10;28.40;51.30
46720;DHT22;32452;51.382;-0.002;2023-08-12T09:56:01;28.20;52.10
46720;DHT22;32452;51.382;-0.002;2023-08-12T09:58:49;28.40;52.40
46720;DHT22;32452;51.382;-0.002;2023-08-12T10:01:35;28.60;51.80
46720;DHT22;32452;51.382;-0.002;2023-08-12T10:04:23;28.70;51.00
46720;DHT22;32452;51.382;-0.002;2023-08-12T10:07:11;28.70;50.50
46720;DHT22;32452;51.382;-0.002;2023-08-12T10:09:59;28.90;50.60
46720;DHT22;32452;51.382;-0.002;2023-08-12T10:12:46;29.20;49.80
46720;DHT22;32452;51.382;-0.002;2023-08-12T10:15:32;29.50;47.10
46720;DHT22;32452;51.382;-0.002;2023-08-12T10:18:18;29.30;47.70
46720;DHT22;32452;51.382;-0.002;2023-08-12T10:21:06;29.50;48.20
46720;DHT22;32452;51.382;-0.002;2023-08-12T10:23:54;29.70;47.00
46720;DHT22;32452;51.382;-0.002;2023-08-12T10:26:42;29.70;46.80
46720;DHT22;32452;51.382;-0.002;2023-08-12T10:29:29;29.70;47.00
46720;DHT22;32452;51.382;-0.002;2023-08-12T10:32:15;29.80;47.10
46720;DHT22;32452;51.382;-0.002;2023-08-12T10:35:01;29.80;47.60
46720;DHT22;32452;51.382;-0.002;2023-08-12T10:37:49;29.40;46.90
46720;DHT22;32452;51.382;-0.002;2023-08-12T10:40:35;28.80;47.10
46720;DHT22;32452;51.382;-0.002;2023-08-12T10:43:26;28.50;47.90
46720;DHT22;32452;51.382;-0.002;2023-08-12T10:49:19;27.80;48.80
46720;DHT22;32452;51.382;-0.002;2023-08-12T10:52:05;27.40;49.70
46720;DHT22;32452;51.382;-0.002;2023-08-12T10:54:50;27.00;50.60
46720;DHT22;32452;51.382;-0.002;2023-08-12T10:57:37;26.60;51.40
46720;DHT22;32452;51.382;-0.002;2023-08-12T11:00:27;26.20;52.00
46720;DHT22;32452;51.382;-0.002;2023-08-12T11:03:14;25.90;52.60
46720;DHT22;32452;51.382;-0.002;2023-08-12T11:06:01;25.80;52.60
46720;DHT22;32452;51.382;-0.002;2023-08-12T11:08:52;25.70;53.00
46720;DHT22;32452;51.382;-0.002;2023-08-12T11:11:39;25.70;53.70
46720;DHT22;32452;51.382;-0.002;2023-08-12T11:14:25;26.00;54.10
46720;DHT22;32452;51.382;-0.002;2023-08-12T11:17:14;26.60;54.00
46720;DHT22;32452;51.382;-0.002;2023-08-12T11:20:01;27.30;53.30
46720;DHT22;32452;51.382;-0.002;2023-08-12T11:22:50;27.90;52.20
46720;DHT22;32452;51.382;-0.002;2023-08-12T11:25:37;28.10;51.20
46720;DHT22;32452;51.382;-0.002;2023-08-12T11:28:23;28.00;50.30
46720;DHT22;32452;51.382;-0.002;2023-08-12T11:31:09;27.90;50.40
46720;DHT22;32452;51.382;-0.002;2023-08-12T11:33:55;27.60;51.20
46720;DHT22;32452;51.382;-0.002;2023-08-12T11:36:41;27.30;51.50
46720;DHT22;32452;51.382;-0.002;2023-08-12T11:39:28;27.00;51.90
46720;DHT22;32452;51.382;-0.002;2023-08-12T11:42:14;26.50;52.70
46720;DHT22;32452;51.382;-0.002;2023-08-12T11:45:00;26.00;53.60
46720;DHT22;32452;51.382;-0.002;2023-08-12T11:47:46;25.60;54.60
46720;DHT22;32452;51.382;-0.002;2023-08-12T11:50:41;25.40;55.50
46720;DHT22;32452;51.382;-0.002;2023-08-12T11:53:27;25.50;56.70
46720;DHT22;32452;51.382;-0.002;2023-08-12T11:56:12;25.80;56.60
46720;DHT22;32452;51.382;-0.002;2023-08-12T11:58:58;26.00;56.30
46720;DHT22;32452;51.382;-0.002;2023-08-12T12:01:49;26.20;55.70
46720;DHT22;32452;51.382;-0.002;2023-08-12T12:04:35;26.40;56.00
46720;DHT22;32452;51.382;-0.002;2023-08-12T12:07:23;26.70;56.10
46720;DHT22;32452;51.382;-0.002;2023-08-12T12:10:13;26.80;55.90
46720;DHT22;32452;51.382;-0.002;2023-08-12T12:13:00;26.70;56.10
46720;DHT22;32452;51.382;-0.002;2023-08-12T12:15:46;26.50;56.50
46720;DHT22;32452;51.382;-0.002;2023-08-12T12:18:31;26.40;57.30
46720;DHT22;32452;51.382;-0.002;2023-08-12T12:21:20;26.20;57.40
46720;DHT22;32452;51.382;-0.002;2023-08-12T12:24:08;26.10;58.10
46720;DHT22;32452;51.382;-0.002;2023-08-12T12:26:53;26.00;58.50
46720;DHT22;32452;51.382;-0.002;2023-08-12T12:29:39;26.00;58.60
46720;DHT22;32452;51.382;-0.002;2023-08-12T12:32:25;26.00;58.70
46720;DHT22;32452;51.382;-0.002;2023-08-12T12:35:10;26.10;58.20
46720;DHT22;32452;51.382;-0.002;2023-08-12T12:37:56;26.00;58.10
46720;DHT22;32452;51.382;-0.002;2023-08-12T12:40:42;26.10;58.10
46720;DHT22;32452;51.382;-0.002;2023-08-12T12:43:28;26.00;58.10
46720;DHT22;32452;51.382;-0.002;2023-08-12T12:46:14;25.90;58.30
46720;DHT22;32452;51.382;-0.002;2023-08-12T12:48:59;25.60;59.00
46720;DHT22;32452;51.382;-0.002;2023-08-12T12:51:45;25.40;59.50
46720;DHT22;32452;51.382;-0.002;2023-08-12T12:54:31;25.10;60.00
46720;DHT22;32452;51.382;-0.002;2023-08-12T12:57:16;24.80;60.40
46720;DHT22;32452;51.382;-0.002;2023-08-12T13:00:02;24.60;61.00
46720;DHT22;32452;51.382;-0.002;2023-08-12T13:02:49;24.30;62.10
46720;DHT22;32452;51.382;-0.002;2023-08-12T13:05:35;24.30;62.60
46720;DHT22;32452;51.382;-0.002;2023-08-12T13:08:21;24.40;62.70
46720;DHT22;32452;51.382;-0.002;2023-08-12T13:11:06;24.40;62.50
46720;DHT22;32452;51.382;-0.002;2023-08-12T13:13:52;24.50;62.60
46720;DHT22;32452;51.382;-0.002;2023-08-12T13:16:39;24.60;61.80
46720;DHT22;32452;51.382;-0.002;2023-08-12T13:19:25;24.80;61.20
46720;DHT22;32452;51.382;-0.002;2023-08-12T13:22:10;24.80;60.00
46720;DHT22;32452;51.382;-0.002;2023-08-12T13:24:56;24.80;59.90
46720;DHT22;32452;51.382;-0.002;2023-08-12T13:27:43;24.80;59.60
46720;DHT22;32452;51.382;-0.002;2023-08-12T13:30:29;24.90;59.00
46720;DHT22;32452;51.382;-0.002;2023-08-12T13:33:14;24.90;58.90
46720;DHT22;32452;51.382;-0.002;2023-08-12T13:36:00;24.80;58.90
46720;DHT22;32452;51.382;-0.002;2023-08-12T13:38:46;24.60;59.20
46720;DHT22;32452;51.382;-0.002;2023-08-12T13:41:31;24.50;59.60
46720;DHT22;32452;51.382;-0.002;2023-08-12T13:44:17;24.40;59.10
46720;DHT22;32452;51.382;-0.002;2023-08-12T13:47:03;24.40;59.20
46720;DHT22;32452;51.382;-0.002;2023-08-12T13:49:49;24.50;59.50
46720;DHT22;32452;51.382;-0.002;2023-08-12T13:52:34;24.40;59.50
46720;DHT22;32452;51.382;-0.002;2023-08-12T13:55:20;24.30;59.80
46720;DHT22;32452;51.382;-0.002;2023-08-12T13:58:06;24.00;60.50
46720;DHT22;32452;51.382;-0.002;2023-08-12T14:00:52;23.90;61.60
46720;DHT22;32452;51.382;-0.002;2023-08-12T14:03:38;23.90;62.00
46720;DHT22;32452;51.382;-0.002;2023-08-12T14:06:23;23.90;62.20
46720;DHT22;32452;51.382;-0.002;2023-08-12T14:09:09;23.90;61.70
46720;DHT22;32452;51.382;-0.002;2023-08-12T14:11:58;23.90;61.90
46720;DHT22;32452;51.382;-0.002;2023-08-12T14:14:43;24.00;62.00
46720;DHT22;32452;51.382;-0.002;2023-08-12T14:17:29;24.00;61.70
46720;DHT22;32452;51.382;-0.002;2023-08-12T14:20:14;24.00;61.80
46720;DHT22;32452;51.382;-0.002;2023-08-12T14:23:00;24.00;62.20
46720;DHT22;32452;51.382;-0.002;2023-08-12T14:25:46;24.00;62.20
46720;DHT22;32452;51.382;-0.002;2023-08-12T14:28:31;24.00;62.20
46720;DHT22;32452;51.382;-0.002;2023-08-12T14:31:17;24.10;62.40
46720;DHT22;32452;51.382;-0.002;2023-08-12T14:34:03;24.10;62.60
46720;DHT22;32452;51.382;-0.002;2023-08-12T14:36:49;24.10;62.70
46720;DHT22;32452;51.382;-0.002;2023-08-12T14:39:35;24.20;62.70
46720;DHT22;32452;51.382;-0.002;2023-08-12T14:42:21;24.20;62.70
46720;DHT22;32452;51.382;-0.002;2023-08-12T14:45:07;24.20;63.00
46720;DHT22;32452;51.382;-0.002;2023-08-12T14:47:52;24.20;64.20
46720;DHT22;32452;51.382;-0.002;2023-08-12T14:50:38;24.20;63.80
46720;DHT22;32452;51.382;-0.002;2023-08-12T14:53:25;24.10;64.10
46720;DHT22;32452;51.382;-0.002;2023-08-12T14:56:10;24.00;64.50
46720;DHT22;32452;51.382;-0.002;2023-08-12T14:58:56;24.00;64.90
46720;DHT22;32452;51.382;-0.002;2023-08-12T15:01:42;23.90;65.40
46720;DHT22;32452;51.382;-0.002;2023-08-12T15:04:27;23.90;64.90
46720;DHT22;32452;51.382;-0.002;2023-08-12T15:07:13;23.90;64.80
46720;DHT22;32452;51.382;-0.002;2023-08-12T15:09:59;23.80;64.80
46720;DHT22;32452;51.382;-0.002;2023-08-12T15:12:45;23.90;65.10
46720;DHT22;32452;51.382;-0.002;2023-08-12T15:15:30;23.80;64.60
46720;DHT22;32452;51.382;-0.002;2023-08-12T15:18:17;23.80;64.70
46720;DHT22;32452;51.382;-0.002;2023-08-12T15:21:02;23.70;64.60
46720;DHT22;32452;51.382;-0.002;2023-08-12T15:23:48;23.70;65.10
46720;DHT22;32452;51.382;-0.002;2023-08-12T15:26:34;23.60;65.50
46720;DHT22;32452;51.382;-0.002;2023-08-12T15:29:20;23.60;65.70
46720;DHT22;32452;51.382;-0.002;2023-08-12T15:32:05;23.60;65.70
46720;DHT22;32452;51.382;-0.002;2023-08-12T15:34:51;23.50;66.00
46720;DHT22;32452;51.382;-0.002;2023-08-12T15:37:36;23.40;66.40
46720;DHT22;32452;51.382;-0.002;2023-08-12T15:40:22;23.40;66.90
46720;DHT22;32452;51.382;-0.002;2023-08-12T15:43:08;23.30;67.60
46720;DHT22;32452;51.382;-0.002;2023-08-12T15:45:53;23.20;68.30
46720;DHT22;32452;51.382;-0.002;2023-08-12T15:48:39;23.10;69.00
46720;DHT22;32452;51.382;-0.002;2023-08-12T15:51:25;23.00;69.40
46720;DHT22;32452;51.382;-0.002;2023-08-12T15:54:11;22.90;69.70
46720;DHT22;32452;51.382;-0.002;2023-08-12T15:56:56;22.90;70.10
46720;DHT22;32452;51.382;-0.002;2023-08-12T15:59:42;22.90;70.20
46720;DHT22;32452;51.382;-0.002;2023-08-12T16:02:29;22.90;70.50
46720;DHT22;32452;51.382;-0.002;2023-08-12T16:05:16;22.80;70.40
46720;DHT22;32452;51.382;-0.002;2023-08-12T16:08:02;22.70;70.20
46720;DHT22;32452;51.382;-0.002;2023-08-12T16:10:48;22.70;70.20
46720;DHT22;32452;51.382;-0.002;2023-08-12T16:13:34;22.60;70.20
46720;DHT22;32452;51.382;-0.002;2023-08-12T16:16:20;22.50;70.40
46720;DHT22;32452;51.382;-0.002;2023-08-12T16:19:05;22.50;70.60
46720;DHT22;32452;51.382;-0.002;2023-08-12T16:21:51;22.40;70.60
46720;DHT22;32452;51.382;-0.002;2023-08-12T16:24:37;22.40;70.80
46720;DHT22;32452;51.382;-0.002;2023-08-12T16:27:22;22.50;71.50
46720;DHT22;32452;51.382;-0.002;2023-08-12T16:30:08;22.50;70.40
46720;DHT22;32452;51.382;-0.002;2023-08-12T16:32:54;22.40;70.30
46720;DHT22;32452;51.382;-0.002;2023-08-12T16:35:40;22.40;70.70
46720;DHT22;32452;51.382;-0.002;2023-08-12T16:38:25;22.40;70.70
46720;DHT22;32452;51.382;-0.002;2023-08-12T16:41:11;22.40;70.80
46720;DHT22;32452;51.382;-0.002;2023-08-12T16:43:58;22.40;71.00
46720;DHT22;32452;51.382;-0.002;2023-08-12T16:46:43;22.50;71.10
46720;DHT22;32452;51.382;-0.002;2023-08-12T16:49:29;22.50;71.10
46720;DHT22;32452;51.382;-0.002;2023-08-12T16:52:15;22.50;71.40
46720;DHT22;32452;51.382;-0.002;2023-08-12T16:55:01;22.50;71.40
46720;DHT22;32452;51.382;-0.002;2023-08-12T16:57:48;22.50;71.50
46720;DHT22;32452;51.382;-0.002;2023-08-12T17:00:34;22.40;71.70
46720;DHT22;32452;51.382;-0.002;2023-08-12T17:03:20;22.30;72.20
46720;DHT22;32452;51.382;-0.002;2023-08-12T17:06:06;22.20;72.60
46720;DHT22;32452;51.382;-0.002;2023-08-12T17:08:51;22.20;73.00
46720;DHT22;32452;51.382;-0.002;2023-08-12T17:11:37;22.10;73.20
46720;DHT22;32452;51.382;-0.002;2023-08-12T17:14:22;22.00;73.30
46720;DHT22;32452;51.382;-0.002;2023-08-12T17:17:08;22.00;73.80